Map

Track Data

SID SEASON NUMBER BASIN SUBBASIN NAME ISO_TIME NATURE LAT LON WMO_WIND WMO_PRES WMO_AGENCY TRACK_TYPE DIST2LAND LANDFALL IFLAG USA_AGENCY USA_ATCF_ID USA_LAT USA_LON USA_RECORD USA_STATUS USA_WIND USA_PRES USA_SSHS USA_R34_NE USA_R34_SE USA_R34_SW USA_R34_NW USA_R50_NE USA_R50_SE USA_R50_SW USA_R50_NW USA_R64_NE USA_R64_SE USA_R64_SW USA_R64_NW USA_POCI USA_ROCI USA_RMW USA_EYE TOKYO_LAT TOKYO_LON TOKYO_GRADE TOKYO_WIND TOKYO_PRES TOKYO_R50_DIR TOKYO_R50_LONG TOKYO_R50_SHORT TOKYO_R30_DIR TOKYO_R30_LONG TOKYO_R30_SHORT TOKYO_LAND CMA_LAT CMA_LON CMA_CAT CMA_WIND CMA_PRES HKO_LAT HKO_LON HKO_CAT HKO_WIND HKO_PRES NEWDELHI_LAT NEWDELHI_LON NEWDELHI_GRADE NEWDELHI_WIND NEWDELHI_PRES NEWDELHI_CI NEWDELHI_DP NEWDELHI_POCI REUNION_LAT REUNION_LON REUNION_TYPE REUNION_WIND REUNION_PRES REUNION_TNUM REUNION_CI REUNION_RMW REUNION_R34_NE REUNION_R34_SE REUNION_R34_SW REUNION_R34_NW REUNION_R50_NE REUNION_R50_SE REUNION_R50_SW REUNION_R50_NW REUNION_R64_NE REUNION_R64_SE REUNION_R64_SW REUNION_R64_NW BOM_LAT BOM_LON BOM_TYPE BOM_WIND BOM_PRES BOM_TNUM BOM_CI BOM_RMW BOM_R34_NE BOM_R34_SE BOM_R34_SW BOM_R34_NW BOM_R50_NE BOM_R50_SE BOM_R50_SW BOM_R50_NW BOM_R64_NE BOM_R64_SE BOM_R64_SW BOM_R64_NW BOM_ROCI BOM_POCI BOM_EYE BOM_POS_METHOD BOM_PRES_METHOD NADI_LAT NADI_LON NADI_CAT NADI_WIND NADI_PRES WELLINGTON_LAT WELLINGTON_LON WELLINGTON_WIND WELLINGTON_PRES DS824_LAT DS824_LON DS824_STAGE DS824_WIND DS824_PRES TD9636_LAT TD9636_LON TD9636_STAGE TD9636_WIND TD9636_PRES TD9635_LAT TD9635_LON TD9635_WIND TD9635_PRES TD9635_ROCI NEUMANN_LAT NEUMANN_LON NEUMANN_CLASS NEUMANN_WIND NEUMANN_PRES MLC_LAT MLC_LON MLC_CLASS MLC_WIND MLC_PRES USA_GUST BOM_GUST BOM_GUST_PER REUNION_GUST REUNION_GUST_PER USA_SEAHGT USA_SEARAD_NE USA_SEARAD_SE USA_SEARAD_SW USA_SEARAD_NW STORM_SPEED STORM_DIR
1966016S14130 1966 4 SI WA JOY 1966-01-15 23:00:00 NR -14.1000 129.700 main 0 0 __________O___ -1 -14.1000 129.700 1 39 262
1966016S14130 1966 4 SI WA JOY 1966-01-15 23:30:00 NR -14.1475 129.368 1002 bom main 15 15 ______O___P___ -1 -14.2000 128.800 1002 -14.1212 129.651 1 24 261
1966016S14130 1966 4 SI WA JOY 1966-01-16 00:00:00 TS -14.1609 129.294 main 15 15 O_____P__OP___ jtwc_sh SH161966 -14.1000 129.600 -1 -14.2301 128.773 1001 -14.2000 128.800 TC 25 1002 -14.1424 129.603 1 6 242
1966016S14130 1966 4 SI WA JOY 1966-01-16 03:00:00 TS -14.3174 129.039 main 43 43 P_____P__PP___ SH161966 -14.2626 129.293 -1 -14.4092 128.611 1001 -14.3858 128.626 TC 26 1001 -14.2690 129.314 1 6 238
1966016S14130 1966 4 SI WA JOY 1966-01-16 06:00:00 TS -14.4730 128.776 main 44 33 O_____P__PP_O_ jtwc_sh SH161966 -14.4000 129.000 -1 -14.5834 128.446 1000 -14.5672 128.452 TC 27 1001 -14.3946 129.033 1 -14.5000 128.700 TC 25 1001 6 239
1966016S14130 1966 4 SI WA JOY 1966-01-16 09:00:00 TS -14.6056 128.553 main 33 21 P_____P__PP_P_ SH161966 -14.5000 128.735 -1 -14.7484 128.277 1000 -14.7400 128.277 TC 28 1000 -14.5185 128.767 1 -14.6475 128.500 TC 27 1000 5 238
1966016S14130 1966 4 SI WA JOY 1966-01-16 11:00:00 TS -14.6936 128.408 main 21 10 P_____P__PO_P_ SH161966 -14.5636 128.575 -1 -14.8512 128.160 1000 -14.8484 128.159 TC 29 1000 -14.6000 128.600 1 -14.7483 128.367 TC 29 1000 5 237
1966016S14130 1966 4 SI WA JOY 1966-01-16 12:00:00 TS -14.7401 128.337 1000 bom main 10 0 O_____O__OP_O_ jtwc_sh SH161966 -14.6000 128.500 -1 -14.9000 128.100 1000 -14.9000 128.100 TC 30 1000 -14.6404 128.521 1 -14.8000 128.300 TC 30 1000 5 234
1966016S14130 1966 4 SI WA JOY 1966-01-16 15:00:00 TS -14.8829 128.139 main 0 0 P_____P__PP_P_ SH161966 -14.7499 128.300 -1 -15.0352 127.915 999 -15.0440 127.922 TC 31 999 -14.7610 128.295 1 -14.9575 128.100 TC 32 999 5 234
1966016S14130 1966 4 SI WA JOY 1966-01-16 18:00:00 TS -15.0189 127.942 main 0 0 O_____P__PP_O_ jtwc_sh SH161966 -14.9000 128.100 -1 -15.1561 127.727 999 -15.1736 127.745 TC 32 999 -14.8834 128.077 1 -15.1000 127.900 TC 35 999 5 238
1966016S14130 1966 4 SI WA JOY 1966-01-16 21:00:00 TS -15.1292 127.729 main 0 0 P_____P__PP_P_ SH161966 -15.0000 127.857 -1 -15.2657 127.539 998 -15.2914 127.570 TC 33 998 -15.0108 127.856 1 -15.2075 127.692 TC 35 998 5 242
1966016S14130 1966 4 SI WA JOY 1966-01-16 23:00:00 TS -15.1992 127.584 main 0 0 P_____P__PO_P_ SH161966 -15.0636 127.686 -1 -15.3341 127.418 998 -15.3646 127.456 TC 34 998 -15.1000 127.700 1 -15.2693 127.561 TC 35 998 5 243
1966016S14130 1966 4 SI WA JOY 1966-01-17 00:00:00 TS -15.2342 127.511 main 0 0 O_____P__OP_O_ jtwc_sh SH161966 -15.1000 127.600 -1 -15.3673 127.358 998 -15.4000 127.400 TC 35 998 -15.1381 127.608 1 -15.3000 127.500 TC 35 998 5 243
1966016S14130 1966 4 SI WA JOY 1966-01-17 01:00:00 TS -15.2715 127.439 998 bom main 0 0 P_____O__PP_P_ SH161966 -15.1416 127.519 -1 -15.4000 127.300 998 -15.4366 127.337 TC -15.1760 127.512 1 -15.3333 127.444 TC 34 997 5 241
1966016S14130 1966 4 SI WA JOY 1966-01-17 03:00:00 TS -15.3498 127.293 main 0 0 P_____P__PP_P_ SH161966 -15.2349 127.357 -1 -15.4682 127.175 -15.5066 127.210 TC -15.2543 127.316 1 -15.4000 127.342 TC 32 997 5 240
1966016S14130 1966 4 SI WA JOY 1966-01-17 06:00:00 TS -15.4763 127.072 main 0 0 O_____P__PP_O_ jtwc_sh SH161966 -15.4000 127.100 -1 -15.5652 126.990 -15.6045 127.019 TC -15.3879 127.024 1 -15.5000 127.200 TC 30 997 5 240
1966016S14130 1966 4 SI WA JOY 1966-01-17 09:00:00 TS -15.6083 126.835 main 0 0 P_____P__PP_P_ SH161966 -15.5701 126.785 -1 -15.6567 126.813 -15.6955 126.832 TC -15.5575 126.754 1 -15.6000 127.043 TC 30 996 5 238
1966016S14130 1966 4 SI WA JOY 1966-01-17 11:00:00 TS -15.7103 126.688 main 0 0 P_____P__PO_P_ SH161966 -15.7136 126.585 -1 -15.7152 126.701 -15.7529 126.714 TC -15.7000 126.600 1 -15.6667 126.944 TC 30 996 5 232
1966016S14130 1966 4 SI WA JOY 1966-01-17 12:00:00 TS -15.7699 126.622 main 0 0 O_____P__PP_O_ jtwc_sh SH161966 -15.8000 126.500 -1 -15.7439 126.647 -15.7809 126.657 TC -15.7946 126.528 1 -15.7000 126.900 TC 30 996 5 219
1966016S14130 1966 4 SI WA JOY 1966-01-17 15:00:00 TS -15.9840 126.461 main 0 0 P_____P__PP_P_ SH161966 -16.1425 126.313 -1 -15.8279 126.499 -15.8624 126.500 TC -16.1213 126.343 1 -15.8075 126.800 TC 30 996 5 212
1966016S14130 1966 4 SI WA JOY 1966-01-17 18:00:00 TS -16.2045 126.341 main 0 0 O_____P__PP_O_ jtwc_sh SH161966 -16.5000 126.200 -1 -15.9099 126.374 -15.9417 126.366 TC -16.4756 126.205 1 -15.9000 126.700 TC 30 996 5 208
1966016S14130 1966 4 SI WA JOY 1966-01-17 21:00:00 TS -16.3887 126.240 main 0 0 P_____P__PP_P_ SH161966 -16.7800 126.120 -1 -15.9911 126.277 -16.0204 126.264 TC -16.8106 126.122 1 -15.9500 126.535 TC 30 995 4 206
1966016S14130 1966 4 SI WA JOY 1966-01-17 23:00:00 TS -16.4942 126.197 main 0 0 P_____P__PO_P_ SH161966 -16.9333 126.100 -1 -16.0453 126.230 -16.0732 126.217 TC -17.0000 126.100 1 -15.9803 126.436 TC 30 995 3 202
1966016S14130 1966 4 SI WA JOY 1966-01-18 00:00:00 TS -16.5402 126.185 main 0 0 O_____P__OP_O_ jtwc_sh SH161966 -17.0000 126.100 -1 -16.0726 126.213 -16.1000 126.200 TC 40 995 -17.0685 126.096 1 -16.0000 126.400 TC 30 995 3 0
1966016S14130 1966 4 SI WA JOY 1966-01-18 01:00:00 TS -16.5850 126.180 995 bom main 0 0 P_____O__PP_P_ SH161966 -17.0640 126.103 -1 -16.1000 126.200 995 4 -16.1256 126.193 TC -17.1290 126.099 1 -16.0276 126.380 TC 29 995 3 0
1966016S14130 1966 4 SI WA JOY 1966-01-18 03:00:00 TS -16.6655 126.190 main 0 0 P_____P__PP_P_ SH161966 -17.1725 126.127 -1 -16.1497 126.194 -16.1759 126.193 TC -17.2298 126.126 1 -16.0925 126.370 TC 27 995 2 162
1966016S14130 1966 4 SI WA JOY 1966-01-18 06:00:00 TS -16.7696 126.241 main 0 0 O_____P__PP_O_ jtwc_sh SH161966 -17.3000 126.200 -1 -16.2223 126.217 -16.2505 126.224 TC -17.3445 126.206 1 -16.2000 126.400 TC 25 995 2 149
1966016S14130 1966 4 SI WA JOY 1966-01-18 09:00:00 TS -16.8598 126.313 main 0 0 P_____P__PP_P_ SH161966 -17.4000 126.285 -1 -16.2952 126.271 -16.3261 126.287 TC -17.4376 126.318 1 -16.3000 126.435 TC 25 995 2 139
1966016S14130 1966 4 SI WA JOY 1966-01-18 11:00:00 TS -16.9195 126.376 main 0 0 P_____P__PO_P_ SH161966 -17.4636 126.358 -1 -16.3453 126.321 -16.3782 126.341 TC -17.5000 126.400 1 -16.3667 126.475 TC 25 995 2 114
1966016S14130 1966 4 SI WA JOY 1966-01-18 12:00:00 TS -16.9018 126.411 main 0 0 O_____P__PP_O_ jtwc_sh SH161966 -17.5000 126.400 -1 -16.3711 126.349 -16.4050 126.372 TC -17.5339 126.442 1 -16.4000 126.500 TC 25 995 2 101
1966016S14130 1966 4 SI WA JOY 1966-01-18 15:00:00 TS -16.9468 126.526 main 0 0 P_____P__PP_P_ SH161966 -17.6375 126.542 -1 -16.4526 126.445 -16.4895 126.474 TC -17.6470 126.567 1 -16.5075 126.600 TC 25 995 2 97
1966016S14130 1966 4 SI WA JOY 1966-01-18 18:00:00 TS -16.9304 126.636 main 0 0 O_____P__PP_O_ jtwc_sh SH161966 -17.8000 126.700 -1 -16.5425 126.551 -16.5819 126.584 TC -17.7734 126.692 1 -16.6000 126.700 TC 25 995 2 59
1966016S14130 1966 4 SI WA JOY 1966-01-18 21:00:00 TS -16.8356 126.718 main 0 0 ______P__PP_P_ SH161966 -1 -16.6434 126.661 -16.6846 126.695 TC -17.9081 126.817 1 -16.6425 126.750 TC 25 995 2 49
1966016S14130 1966 4 SI WA JOY 1966-01-18 23:00:00 TS -16.8162 126.770 main 0 0 ______P__PO_P_ SH161966 -1 -16.7182 126.732 -16.7600 126.766 TC -18.0000 126.900 1 -16.6745 126.780 TC 25 995 2 38
1966016S14130 1966 4 SI WA JOY 1966-01-19 00:00:00 TS -16.7527 126.789 main 0 0 ______P__O__O_ -1 -16.7582 126.767 -16.8000 126.800 TC 40 995 1 -16.7000 126.800 TC 25 995 2 53
1966016S14130 1966 4 SI WA JOY 1966-01-19 01:00:00 TS -16.7925 126.821 995 bom main 0 0 ______O__P__P_ -1 -16.8000 126.800 995 -16.8416 126.832 TC 1 -16.7360 126.830 TC 25 995 3 145
1966016S14130 1966 4 SI WA JOY 1966-01-19 03:00:00 TS -16.8822 126.885 main 0 0 ______P__P__P_ -1 -16.8893 126.862 -16.9296 126.893 TC 1 -16.8275 126.900 TC 25 995 3 149
1966016S14130 1966 4 SI WA JOY 1966-01-19 06:00:00 TS -17.0363 126.973 main 0 0 ______P__P__O_ -1 -17.0364 126.946 -17.0724 126.973 TC 1 -17.0000 127.000 TC 25 995 4 155
1966016S14130 1966 4 SI WA JOY 1966-01-19 09:00:00 TS -17.2080 127.040 main 0 0 ______P__P__P_ -1 -17.1974 127.019 -17.2265 127.043 TC 1 -17.2000 127.058 TC 25 995 4 162
1966016S14130 1966 4 SI WA JOY 1966-01-19 12:00:00 TS -17.3867 127.096 main 0 0 ______P__P__O_ -1 -17.3701 127.083 -17.3899 127.105 TC -17.4000 127.100 TC 25 996 4 163
1966016S14130 1966 4 SI WA JOY 1966-01-19 15:00:00 TS -17.5544 127.147 main 0 0 ______P__P__P_ -1 -17.5523 127.140 -17.5609 127.160 TC -17.5500 127.143 TC 30 996 4 165
1966016S14130 1966 4 SI WA JOY 1966-01-19 18:00:00 TS -17.7280 127.199 main 0 0 ______P__P__O_ -1 -17.7418 127.191 -17.7374 127.209 TC -17.7000 127.200 TC 35 997 4 164
1966016S14130 1966 4 SI WA JOY 1966-01-19 21:00:00 TS -17.9171 127.258 main 0 0 ______P__P__P_ -1 -17.9364 127.239 -17.9178 127.255 TC -17.8875 127.290 TC 27 997 4 164
1966016S14130 1966 4 SI WA JOY 1966-01-20 00:00:00 TS -18.1169 127.317 main 0 0 ______P__O__O_ -1 -18.1339 127.285 -18.1000 127.300 TC 30 999 -18.1000 127.400 TC 20 998 4 173
1966016S14130 1966 4 SI WA JOY 1966-01-20 01:00:00 NR -18.2000 127.300 999 bom main 0 ______O_______ -1 -18.2000 127.300 999 TC TC 5 0

About IBTrACS Database

This database is a web-friendly format of International Best Track Archive for Climate Stewardship (IBTrACS), a global best track data archive curated by NOAA dating back to 1842.

Updated: 2021-10-25